sensor_id;sensor_type;location;lat;lon;timestamp;temperature;humidity
5392;DHT22;2719;53.624;9.786;2023-02-15T00:00:52;7.10;99.90
5392;DHT22;2719;53.624;9.786;2023-02-15T00:03:20;7.10;99.90
5392;DHT22;2719;53.624;9.786;2023-02-15T00:05:46;7.00;99.90
5392;DHT22;2719;53.624;9.786;2023-02-15T00:08:13;7.00;99.90
5392;DHT22;2719;53.624;9.786;2023-02-15T00:10:41;7.10;99.90
5392;DHT22;2719;53.624;9.786;2023-02-15T00:13:08;7.00;99.90
5392;DHT22;2719;53.624;9.786;2023-02-15T00:15:34;6.90;99.90
5392;DHT22;2719;53.624;9.786;2023-02-15T00:18:01;6.90;99.90
5392;DHT22;2719;53.624;9.786;2023-02-15T00:20:28;6.90;99.90
5392;DHT22;2719;53.624;9.786;2023-02-15T00:22:54;7.00;99.90
5392;DHT22;2719;53.624;9.786;2023-02-15T00:25:21;7.00;99.90
5392;DHT22;2719;53.624;9.786;2023-02-15T00:27:49;7.00;99.90
5392;DHT22;2719;53.624;9.786;2023-02-15T00:30:16;7.00;99.90
5392;DHT22;2719;53.624;9.786;2023-02-15T00:32:43;7.00;99.90
5392;DHT22;2719;53.624;9.786;2023-02-15T00:35:09;7.00;99.90
5392;DHT22;2719;53.624;9.786;2023-02-15T00:37:36;7.10;99.90
5392;DHT22;2719;53.624;9.786;2023-02-15T00:40:04;7.00;99.90
5392;DHT22;2719;53.624;9.786;2023-02-15T00:42:31;6.70;99.90
5392;DHT22;2719;53.624;9.786;2023-02-15T00:44:59;6.50;99.90
5392;DHT22;2719;53.624;9.786;2023-02-15T00:47:25;6.70;99.90
5392;DHT22;2719;53.624;9.786;2023-02-15T00:49:52;6.70;99.90
5392;DHT22;2719;53.624;9.786;2023-02-15T00:52:19;6.50;99.90
5392;DHT22;2719;53.624;9.786;2023-02-15T00:54:45;6.70;99.90
5392;DHT22;2719;53.624;9.786;2023-02-15T00:57:12;6.70;99.90
5392;DHT22;2719;53.624;9.786;2023-02-15T00:59:38;6.80;99.90
5392;DHT22;2719;53.624;9.786;2023-02-15T01:02:06;6.90;99.90
5392;DHT22;2719;53.624;9.786;2023-02-15T01:04:33;6.90;99.90
5392;DHT22;2719;53.624;9.786;2023-02-15T01:07:00;6.90;99.90
5392;DHT22;2719;53.624;9.786;2023-02-15T01:09:27;7.00;99.90
5392;DHT22;2719;53.624;9.786;2023-02-15T01:11:53;7.00;99.90
5392;DHT22;2719;53.624;9.786;2023-02-15T01:14:20;7.00;99.90
5392;DHT22;2719;53.624;9.786;2023-02-15T01:16:47;7.00;99.90
5392;DHT22;2719;53.624;9.786;2023-02-15T01:19:15;7.00;99.90
5392;DHT22;2719;53.624;9.786;2023-02-15T01:21:41;7.00;99.90
5392;DHT22;2719;53.624;9.786;2023-02-15T01:24:11;7.10;99.90
5392;DHT22;2719;53.624;9.786;2023-02-15T01:26:38;7.00;99.90
5392;DHT22;2719;53.624;9.786;2023-02-15T01:29:05;7.00;99.90
5392;DHT22;2719;53.624;9.786;2023-02-15T01:31:32;7.00;99.90
5392;DHT22;2719;53.624;9.786;2023-02-15T01:33:58;7.00;99.90
5392;DHT22;2719;53.624;9.786;2023-02-15T01:36:26;7.00;99.90
5392;DHT22;2719;53.624;9.786;2023-02-15T01:38:53;6.90;99.90
5392;DHT22;2719;53.624;9.786;2023-02-15T01:41:20;7.00;99.90
5392;DHT22;2719;53.624;9.786;2023-02-15T01:43:49;7.00;99.90
5392;DHT22;2719;53.624;9.786;2023-02-15T01:46:19;7.10;99.90
5392;DHT22;2719;53.624;9.786;2023-02-15T01:48:48;7.10;99.90
5392;DHT22;2719;53.624;9.786;2023-02-15T01:51:18;7.10;99.90
5392;DHT22;2719;53.624;9.786;2023-02-15T01:53:51;7.00;99.90
5392;DHT22;2719;53.624;9.786;2023-02-15T01:56:22;7.00;99.90
5392;DHT22;2719;53.624;9.786;2023-02-15T01:58:51;7.00;99.90
5392;DHT22;2719;53.624;9.786;2023-02-15T02:01:20;7.00;99.90
5392;DHT22;2719;53.624;9.786;2023-02-15T02:03:56;7.00;99.90
5392;DHT22;2719;53.624;9.786;2023-02-15T02:06:26;7.00;99.90
5392;DHT22;2719;53.624;9.786;2023-02-15T02:08:54;7.00;99.90
5392;DHT22;2719;53.624;9.786;2023-02-15T02:11:22;7.00;99.90
5392;DHT22;2719;53.624;9.786;2023-02-15T02:13:50;6.90;99.90
5392;DHT22;2719;53.624;9.786;2023-02-15T02:16:21;6.80;99.90
5392;DHT22;2719;53.624;9.786;2023-02-15T02:19:01;6.90;99.90
5392;DHT22;2719;53.624;9.786;2023-02-15T02:25:10;6.90;99.90
5392;DHT22;2719;53.624;9.786;2023-02-15T02:27:40;6.80;99.90
5392;DHT22;2719;53.624;9.786;2023-02-15T02:30:40;6.80;99.90
5392;DHT22;2719;53.624;9.786;2023-02-15T02:33:28;6.90;99.90
5392;DHT22;2719;53.624;9.786;2023-02-15T02:36:06;6.90;99.90
5392;DHT22;2719;53.624;9.786;2023-02-15T02:38:42;6.80;99.90
5392;DHT22;2719;53.624;9.786;2023-02-15T02:41:16;6.80;99.90
5392;DHT22;2719;53.624;9.786;2023-02-15T02:43:49;6.90;99.90
5392;DHT22;2719;53.624;9.786;2023-02-15T02:46:21;7.00;99.90
5392;DHT22;2719;53.624;9.786;2023-02-15T02:48:52;7.00;99.90
5392;DHT22;2719;53.624;9.786;2023-02-15T02:51:19;7.00;99.90
5392;DHT22;2719;53.624;9.786;2023-02-15T02:53:50;7.10;99.90
5392;DHT22;2719;53.624;9.786;2023-02-15T02:56:21;7.10;99.90
5392;DHT22;2719;53.624;9.786;2023-02-15T02:58:56;7.10;99.90
5392;DHT22;2719;53.624;9.786;2023-02-15T03:01:31;7.00;99.90
5392;DHT22;2719;53.624;9.786;2023-02-15T03:04:03;7.10;99.90
5392;DHT22;2719;53.624;9.786;2023-02-15T03:06:36;7.00;99.90
5392;DHT22;2719;53.624;9.786;2023-02-15T03:09:09;7.00;99.90
5392;DHT22;2719;53.624;9.786;2023-02-15T03:11:40;7.00;99.90
5392;DHT22;2719;53.624;9.786;2023-02-15T03:14:07;7.00;99.90
5392;DHT22;2719;53.624;9.786;2023-02-15T03:16:34;7.00;99.90
5392;DHT22;2719;53.624;9.786;2023-02-15T03:19:05;7.00;99.90
5392;DHT22;2719;53.624;9.786;2023-02-15T03:21:36;6.90;99.90
5392;DHT22;2719;53.624;9.786;2023-02-15T03:24:09;6.90;99.90
5392;DHT22;2719;53.624;9.786;2023-02-15T03:26:40;6.80;99.90
5392;DHT22;2719;53.624;9.786;2023-02-15T03:29:10;6.80;99.90
5392;DHT22;2719;53.624;9.786;2023-02-15T03:31:40;6.80;99.90
5392;DHT22;2719;53.624;9.786;2023-02-15T03:34:11;6.70;99.90
5392;DHT22;2719;53.624;9.786;2023-02-15T03:36:43;6.60;99.90
5392;DHT22;2719;53.624;9.786;2023-02-15T03:39:17;6.70;99.90
5392;DHT22;2719;53.624;9.786;2023-02-15T03:41:49;6.60;99.90
5392;DHT22;2719;53.624;9.786;2023-02-15T03:44:22;6.60;99.90
5392;DHT22;2719;53.624;9.786;2023-02-15T03:46:55;6.60;99.90
5392;DHT22;2719;53.624;9.786;2023-02-15T03:49:26;6.70;99.90
5392;DHT22;2719;53.624;9.786;2023-02-15T03:51:56;6.60;99.90
5392;DHT22;2719;53.624;9.786;2023-02-15T03:54:25;6.60;99.90
5392;DHT22;2719;53.624;9.786;2023-02-15T03:57:11;6.60;99.90
5392;DHT22;2719;53.624;9.786;2023-02-15T03:59:56;6.50;99.90
5392;DHT22;2719;53.624;9.786;2023-02-15T04:02:49;6.50;99.90
5392;DHT22;2719;53.624;9.786;2023-02-15T04:05:19;6.60;99.90
5392;DHT22;2719;53.624;9.786;2023-02-15T04:07:45;6.50;99.90
5392;DHT22;2719;53.624;9.786;2023-02-15T04:10:12;6.50;99.90
5392;DHT22;2719;53.624;9.786;2023-02-15T04:12:57;6.40;99.90
5392;DHT22;2719;53.624;9.786;2023-02-15T04:15:23;6.50;99.90
5392;DHT22;2719;53.624;9.786;2023-02-15T04:18:10;6.50;99.90
5392;DHT22;2719;53.624;9.786;2023-02-15T04:20:38;6.50;99.90
5392;DHT22;2719;53.624;9.786;2023-02-15T04:23:22;6.60;99.90
5392;DHT22;2719;53.624;9.786;2023-02-15T04:26:06;6.60;99.90
5392;DHT22;2719;53.624;9.786;2023-02-15T04:28:33;6.60;99.90
5392;DHT22;2719;53.624;9.786;2023-02-15T04:31:00;6.60;99.90
5392;DHT22;2719;53.624;9.786;2023-02-15T04:33:26;6.50;99.90
5392;DHT22;2719;53.624;9.786;2023-02-15T04:35:54;6.40;99.90
5392;DHT22;2719;53.624;9.786;2023-02-15T04:38:21;6.20;99.90
5392;DHT22;2719;53.624;9.786;2023-02-15T04:40:49;6.30;99.90
5392;DHT22;2719;53.624;9.786;2023-02-15T04:43:17;6.40;99.90
5392;DHT22;2719;53.624;9.786;2023-02-15T04:45:47;6.40;99.90
5392;DHT22;2719;53.624;9.786;2023-02-15T04:48:14;6.50;99.90
5392;DHT22;2719;53.624;9.786;2023-02-15T04:50:41;6.50;99.90
5392;DHT22;2719;53.624;9.786;2023-02-15T04:53:09;6.50;99.90
5392;DHT22;2719;53.624;9.786;2023-02-15T04:55:36;6.50;99.90
5392;DHT22;2719;53.624;9.786;2023-02-15T04:58:02;6.50;99.90
5392;DHT22;2719;53.624;9.786;2023-02-15T05:00:29;6.50;99.90
5392;DHT22;2719;53.624;9.786;2023-02-15T05:02:56;6.60;99.90
5392;DHT22;2719;53.624;9.786;2023-02-15T05:05:22;6.60;99.90
5392;DHT22;2719;53.624;9.786;2023-02-15T05:07:49;6.40;99.90
5392;DHT22;2719;53.624;9.786;2023-02-15T05:10:17;6.30;99.90
5392;DHT22;2719;53.624;9.786;2023-02-15T05:12:44;6.30;99.90
5392;DHT22;2719;53.624;9.786;2023-02-15T05:15:11;6.40;99.90
5392;DHT22;2719;53.624;9.786;2023-02-15T05:17:37;6.30;99.90
5392;DHT22;2719;53.624;9.786;2023-02-15T05:20:05;6.20;99.90
5392;DHT22;2719;53.624;9.786;2023-02-15T05:22:32;6.30;99.90
5392;DHT22;2719;53.624;9.786;2023-02-15T05:24:58;6.20;99.90
5392;DHT22;2719;53.624;9.786;2023-02-15T05:27:44;6.20;99.90
5392;DHT22;2719;53.624;9.786;2023-02-15T05:30:28;6.20;99.90
5392;DHT22;2719;53.624;9.786;2023-02-15T05:32:55;6.20;99.90
5392;DHT22;2719;53.624;9.786;2023-02-15T05:35:22;6.20;99.90
5392;DHT22;2719;53.624;9.786;2023-02-15T05:37:48;6.20;99.90
5392;DHT22;2719;53.624;9.786;2023-02-15T05:40:15;6.10;99.90
5392;DHT22;2719;53.624;9.786;2023-02-15T05:42:43;6.20;99.90
5392;DHT22;2719;53.624;9.786;2023-02-15T05:45:10;6.00;99.90
5392;DHT22;2719;53.624;9.786;2023-02-15T05:47:36;6.00;99.90
5392;DHT22;2719;53.624;9.786;2023-02-15T05:50:04;5.90;99.90
5392;DHT22;2719;53.624;9.786;2023-02-15T05:52:31;6.00;99.90
5392;DHT22;2719;53.624;9.786;2023-02-15T05:54:58;6.00;99.90
5392;DHT22;2719;53.624;9.786;2023-02-15T05:57:25;5.90;99.90
5392;DHT22;2719;53.624;9.786;2023-02-15T05:59:53;6.00;99.90
5392;DHT22;2719;53.624;9.786;2023-02-15T06:02:20;6.10;99.90
5392;DHT22;2719;53.624;9.786;2023-02-15T06:04:46;6.10;99.90
5392;DHT22;2719;53.624;9.786;2023-02-15T06:07:13;6.10;99.90
5392;DHT22;2719;53.624;9.786;2023-02-15T06:09:40;6.20;99.90
5392;DHT22;2719;53.624;9.786;2023-02-15T06:12:07;6.10;99.90
5392;DHT22;2719;53.624;9.786;2023-02-15T06:14:33;6.10;99.90
5392;DHT22;2719;53.624;9.786;2023-02-15T06:17:01;6.10;99.90
5392;DHT22;2719;53.624;9.786;2023-02-15T06:19:28;6.10;99.90
5392;DHT22;2719;53.624;9.786;2023-02-15T06:21:55;6.20;99.90
5392;DHT22;2719;53.624;9.786;2023-02-15T06:24:21;6.20;99.90
5392;DHT22;2719;53.624;9.786;2023-02-15T06:26:48;6.10;99.90
5392;DHT22;2719;53.624;9.786;2023-02-15T06:29:15;6.10;99.90
5392;DHT22;2719;53.624;9.786;2023-02-15T06:31:41;6.20;99.90
5392;DHT22;2719;53.624;9.786;2023-02-15T06:34:09;6.10;99.90
5392;DHT22;2719;53.624;9.786;2023-02-15T06:36:36;6.10;99.90
5392;DHT22;2719;53.624;9.786;2023-02-15T06:39:03;6.10;99.90
5392;DHT22;2719;53.624;9.786;2023-02-15T06:41:29;6.10;99.90
5392;DHT22;2719;53.624;9.786;2023-02-15T06:43:56;6.00;99.90
5392;DHT22;2719;53.624;9.786;2023-02-15T06:46:23;6.10;99.90
5392;DHT22;2719;53.624;9.786;2023-02-15T06:48:50;6.10;99.90
5392;DHT22;2719;53.624;9.786;2023-02-15T06:51:18;6.10;99.90
5392;DHT22;2719;53.624;9.786;2023-02-15T06:53:44;6.10;99.90
5392;DHT22;2719;53.624;9.786;2023-02-15T06:56:11;6.10;99.90
5392;DHT22;2719;53.624;9.786;2023-02-15T06:58:39;6.00;99.90
5392;DHT22;2719;53.624;9.786;2023-02-15T07:01:07;5.90;99.90
5392;DHT22;2719;53.624;9.786;2023-02-15T07:03:34;5.80;99.90
5392;DHT22;2719;53.624;9.786;2023-02-15T07:06:03;5.80;99.90
5392;DHT22;2719;53.624;9.786;2023-02-15T07:08:35;5.80;99.90
5392;DHT22;2719;53.624;9.786;2023-02-15T07:11:02;5.80;99.90
5392;DHT22;2719;53.624;9.786;2023-02-15T07:13:43;5.60;99.90
5392;DHT22;2719;53.624;9.786;2023-02-15T07:16:09;5.60;99.90
5392;DHT22;2719;53.624;9.786;2023-02-15T07:18:37;5.50;99.90
5392;DHT22;2719;53.624;9.786;2023-02-15T07:21:04;5.60;99.90
5392;DHT22;2719;53.624;9.786;2023-02-15T07:23:34;5.50;99.90
5392;DHT22;2719;53.624;9.786;2023-02-15T07:26:01;5.50;99.90
5392;DHT22;2719;53.624;9.786;2023-02-15T07:28:28;5.60;99.90
5392;DHT22;2719;53.624;9.786;2023-02-15T07:30:55;5.60;99.90
5392;DHT22;2719;53.624;9.786;2023-02-15T07:33:22;5.60;99.90
5392;DHT22;2719;53.624;9.786;2023-02-15T07:35:50;5.60;99.90
5392;DHT22;2719;53.624;9.786;2023-02-15T07:38:18;5.40;99.90
5392;DHT22;2719;53.624;9.786;2023-02-15T07:40:46;5.40;99.90
5392;DHT22;2719;53.624;9.786;2023-02-15T07:43:13;5.40;99.90
5392;DHT22;2719;53.624;9.786;2023-02-15T07:45:40;5.40;99.90
5392;DHT22;2719;53.624;9.786;2023-02-15T07:48:07;5.40;99.90
5392;DHT22;2719;53.624;9.786;2023-02-15T07:50:34;5.50;99.90
5392;DHT22;2719;53.624;9.786;2023-02-15T07:53:01;5.40;99.90
5392;DHT22;2719;53.624;9.786;2023-02-15T07:55:28;5.40;99.90
5392;DHT22;2719;53.624;9.786;2023-02-15T07:57:56;5.30;99.90
5392;DHT22;2719;53.624;9.786;2023-02-15T08:00:23;5.30;99.90
5392;DHT22;2719;53.624;9.786;2023-02-15T08:02:52;5.30;99.90
5392;DHT22;2719;53.624;9.786;2023-02-15T08:05:33;5.40;99.90
5392;DHT22;2719;53.624;9.786;2023-02-15T08:07:59;5.50;99.90
5392;DHT22;2719;53.624;9.786;2023-02-15T08:10:26;5.50;99.90
5392;DHT22;2719;53.624;9.786;2023-02-15T08:13:15;5.50;99.90
5392;DHT22;2719;53.624;9.786;2023-02-15T08:15:48;5.50;99.90
5392;DHT22;2719;53.624;9.786;2023-02-15T08:18:14;5.50;99.90
5392;DHT22;2719;53.624;9.786;2023-02-15T08:20:41;5.50;99.90
5392;DHT22;2719;53.624;9.786;2023-02-15T08:23:08;5.50;99.90
5392;DHT22;2719;53.624;9.786;2023-02-15T08:25:34;5.50;99.90
5392;DHT22;2719;53.624;9.786;2023-02-15T08:28:01;5.50;99.90
5392;DHT22;2719;53.624;9.786;2023-02-15T08:30:29;5.50;99.90
5392;DHT22;2719;53.624;9.786;2023-02-15T08:32:56;5.50;99.90
5392;DHT22;2719;53.624;9.786;2023-02-15T08:35:24;5.50;99.90
5392;DHT22;2719;53.624;9.786;2023-02-15T08:37:51;5.50;99.90
5392;DHT22;2719;53.624;9.786;2023-02-15T08:40:18;5.60;99.90
5392;DHT22;2719;53.624;9.786;2023-02-15T08:42:45;5.50;99.90
5392;DHT22;2719;53.624;9.786;2023-02-15T08:45:11;5.60;99.90
5392;DHT22;2719;53.624;9.786;2023-02-15T08:47:39;5.70;99.90
5392;DHT22;2719;53.624;9.786;2023-02-15T08:50:06;5.70;99.90
5392;DHT22;2719;53.624;9.786;2023-02-15T08:52:33;5.80;99.90
5392;DHT22;2719;53.624;9.786;2023-02-15T08:55:00;5.70;99.90
5392;DHT22;2719;53.624;9.786;2023-02-15T08:57:27;5.60;99.90
5392;DHT22;2719;53.624;9.786;2023-02-15T08:59:53;5.60;99.90
5392;DHT22;2719;53.624;9.786;2023-02-15T09:02:20;5.60;99.90
5392;DHT22;2719;53.624;9.786;2023-02-15T09:04:48;5.60;99.90
5392;DHT22;2719;53.624;9.786;2023-02-15T09:07:15;5.60;99.90
5392;DHT22;2719;53.624;9.786;2023-02-15T09:09:44;5.50;99.90
5392;DHT22;2719;53.624;9.786;2023-02-15T09:12:10;5.40;99.90
5392;DHT22;2719;53.624;9.786;2023-02-15T09:14:37;5.20;99.90
5392;DHT22;2719;53.624;9.786;2023-02-15T09:17:04;5.30;99.90
5392;DHT22;2719;53.624;9.786;2023-02-15T09:19:31;5.40;99.90
5392;DHT22;2719;53.624;9.786;2023-02-15T09:21:59;5.30;99.90
5392;DHT22;2719;53.624;9.786;2023-02-15T09:24:26;5.50;99.90
5392;DHT22;2719;53.624;9.786;2023-02-15T09:26:52;5.50;99.90
5392;DHT22;2719;53.624;9.786;2023-02-15T09:29:19;5.50;99.90
5392;DHT22;2719;53.624;9.786;2023-02-15T09:31:48;5.50;99.90
5392;DHT22;2719;53.624;9.786;2023-02-15T09:34:17;5.50;99.90
5392;DHT22;2719;53.624;9.786;2023-02-15T09:36:44;5.60;99.90
5392;DHT22;2719;53.624;9.786;2023-02-15T09:39:14;5.60;99.90
5392;DHT22;2719;53.624;9.786;2023-02-15T09:44:53;5.60;99.90
5392;DHT22;2719;53.624;9.786;2023-02-15T09:47:41;5.50;99.90
5392;DHT22;2719;53.624;9.786;2023-02-15T09:50:15;5.50;99.90
5392;DHT22;2719;53.624;9.786;2023-02-15T09:53:04;5.60;99.90
5392;DHT22;2719;53.624;9.786;2023-02-15T09:55:43;5.60;99.90
5392;DHT22;2719;53.624;9.786;2023-02-15T09:58:19;5.70;99.90
5392;DHT22;2719;53.624;9.786;2023-02-15T10:00:54;5.60;99.90
5392;DHT22;2719;53.624;9.786;2023-02-15T10:03:37;5.60;99.90
5392;DHT22;2719;53.624;9.786;2023-02-15T10:09:07;5.80;99.90
5392;DHT22;2719;53.624;9.786;2023-02-15T10:11:48;5.90;99.90
5392;DHT22;2719;53.624;9.786;2023-02-15T10:14:43;5.80;99.90
5392;DHT22;2719;53.624;9.786;2023-02-15T10:17:29;5.80;99.90
5392;DHT22;2719;53.624;9.786;2023-02-15T10:20:08;6.00;99.90
5392;DHT22;2719;53.624;9.786;2023-02-15T10:22:45;6.00;99.90
5392;DHT22;2719;53.624;9.786;2023-02-15T10:25:23;6.00;99.90
5392;DHT22;2719;53.624;9.786;2023-02-15T10:28:05;6.00;99.90
5392;DHT22;2719;53.624;9.786;2023-02-15T10:30:40;6.00;99.90
5392;DHT22;2719;53.624;9.786;2023-02-15T10:33:18;6.10;99.90
5392;DHT22;2719;53.624;9.786;2023-02-15T10:35:53;6.10;99.90
5392;DHT22;2719;53.624;9.786;2023-02-15T10:38:25;6.20;99.90
5392;DHT22;2719;53.624;9.786;2023-02-15T10:41:04;6.20;99.90
5392;DHT22;2719;53.624;9.786;2023-02-15T10:43:58;6.20;99.90
5392;DHT22;2719;53.624;9.786;2023-02-15T10:46:42;6.30;99.90
5392;DHT22;2719;53.624;9.786;2023-02-15T10:49:45;6.40;99.90
5392;DHT22;2719;53.624;9.786;2023-02-15T10:52:25;6.50;99.90
5392;DHT22;2719;53.624;9.786;2023-02-15T10:55:06;6.60;99.90
5392;DHT22;2719;53.624;9.786;2023-02-15T10:57:41;6.50;99.90
5392;DHT22;2719;53.624;9.786;2023-02-15T11:00:15;6.50;99.90
5392;DHT22;2719;53.624;9.786;2023-02-15T11:02:54;6.50;99.90
5392;DHT22;2719;53.624;9.786;2023-02-15T11:05:35;6.60;99.90
5392;DHT22;2719;53.624;9.786;2023-02-15T11:08:06;6.60;99.90
5392;DHT22;2719;53.624;9.786;2023-02-15T11:10:35;6.60;99.90
5392;DHT22;2719;53.624;9.786;2023-02-15T11:13:08;6.60;99.90
5392;DHT22;2719;53.624;9.786;2023-02-15T11:15:40;6.70;99.90
5392;DHT22;2719;53.624;9.786;2023-02-15T11:18:11;6.80;99.90
5392;DHT22;2719;53.624;9.786;2023-02-15T11:20:45;6.80;99.90
5392;DHT22;2719;53.624;9.786;2023-02-15T11:23:15;6.90;99.90
5392;DHT22;2719;53.624;9.786;2023-02-15T11:25:45;7.10;99.90
5392;DHT22;2719;53.624;9.786;2023-02-15T11:28:18;7.00;99.90
5392;DHT22;2719;53.624;9.786;2023-02-15T11:30:50;7.00;99.90
5392;DHT22;2719;53.624;9.786;2023-02-15T11:33:20;6.90;99.90
5392;DHT22;2719;53.624;9.786;2023-02-15T11:35:51;6.80;99.90
5392;DHT22;2719;53.624;9.786;2023-02-15T11:38:22;6.90;99.90
5392;DHT22;2719;53.624;9.786;2023-02-15T11:40:52;6.90;99.90
5392;DHT22;2719;53.624;9.786;2023-02-15T11:43:24;6.80;99.90
5392;DHT22;2719;53.624;9.786;2023-02-15T11:45:54;6.80;99.90
5392;DHT22;2719;53.624;9.786;2023-02-15T11:48:20;6.90;99.90
5392;DHT22;2719;53.624;9.786;2023-02-15T11:50:47;6.90;99.90
5392;DHT22;2719;53.624;9.786;2023-02-15T11:53:15;6.90;99.90
5392;DHT22;2719;53.624;9.786;2023-02-15T11:55:43;7.00;99.90
5392;DHT22;2719;53.624;9.786;2023-02-15T11:58:19;7.10;99.90
5392;DHT22;2719;53.624;9.786;2023-02-15T12:00:50;7.40;99.90
5392;DHT22;2719;53.624;9.786;2023-02-15T12:03:22;7.40;99.90
5392;DHT22;2719;53.624;9.786;2023-02-15T12:05:57;7.40;99.90
5392;DHT22;2719;53.624;9.786;2023-02-15T12:08:37;7.40;99.90
5392;DHT22;2719;53.624;9.786;2023-02-15T12:11:07;7.70;99.90
5392;DHT22;2719;53.624;9.786;2023-02-15T12:13:54;7.80;99.90
5392;DHT22;2719;53.624;9.786;2023-02-15T12:16:20;7.90;99.90
5392;DHT22;2719;53.624;9.786;2023-02-15T12:18:49;8.20;99.90
5392;DHT22;2719;53.624;9.786;2023-02-15T12:21:25;8.20;99.90
5392;DHT22;2719;53.624;9.786;2023-02-15T12:23:55;8.30;99.90
5392;DHT22;2719;53.624;9.786;2023-02-15T12:26:26;8.50;99.90
5392;DHT22;2719;53.624;9.786;2023-02-15T12:28:54;8.60;99.90
5392;DHT22;2719;53.624;9.786;2023-02-15T12:31:27;8.50;99.90
5392;DHT22;2719;53.624;9.786;2023-02-15T12:34:00;8.80;99.90
5392;DHT22;2719;53.624;9.786;2023-02-15T12:36:30;9.00;99.90
5392;DHT22;2719;53.624;9.786;2023-02-15T12:39:15;9.20;99.90
5392;DHT22;2719;53.624;9.786;2023-02-15T12:41:46;9.40;99.90
5392;DHT22;2719;53.624;9.786;2023-02-15T12:44:24;9.60;99.90
5392;DHT22;2719;53.624;9.786;2023-02-15T12:47:00;9.80;99.90
5392;DHT22;2719;53.624;9.786;2023-02-15T12:49:29;10.00;99.90
5392;DHT22;2719;53.624;9.786;2023-02-15T12:51:57;10.00;99.90
5392;DHT22;2719;53.624;9.786;2023-02-15T12:54:32;10.20;99.90
5392;DHT22;2719;53.624;9.786;2023-02-15T12:57:14;10.40;99.90
5392;DHT22;2719;53.624;9.786;2023-02-15T12:59:51;10.60;99.90
5392;DHT22;2719;53.624;9.786;2023-02-15T13:02:22;10.40;99.90
5392;DHT22;2719;53.624;9.786;2023-02-15T13:04:51;10.60;99.90
5392;DHT22;2719;53.624;9.786;2023-02-15T13:07:19;10.90;99.90
5392;DHT22;2719;53.624;9.786;2023-02-15T13:09:46;11.10;99.90
5392;DHT22;2719;53.624;9.786;2023-02-15T13:12:18;11.20;99.90
5392;DHT22;2719;53.624;9.786;2023-02-15T13:14:49;11.20;99.90
5392;DHT22;2719;53.624;9.786;2023-02-15T13:17:19;11.20;99.90
5392;DHT22;2719;53.624;9.786;2023-02-15T13:19:52;11.30;99.90
5392;DHT22;2719;53.624;9.786;2023-02-15T13:22:22;11.20;99.90
5392;DHT22;2719;53.624;9.786;2023-02-15T13:24:54;11.30;99.90
5392;DHT22;2719;53.624;9.786;2023-02-15T13:27:26;11.30;99.90
5392;DHT22;2719;53.624;9.786;2023-02-15T13:29:58;11.40;99.90
5392;DHT22;2719;53.624;9.786;2023-02-15T13:32:29;11.30;99.90
5392;DHT22;2719;53.624;9.786;2023-02-15T13:34:59;11.10;99.90
5392;DHT22;2719;53.624;9.786;2023-02-15T13:37:45;11.30;99.90
5392;DHT22;2719;53.624;9.786;2023-02-15T13:40:20;11.40;99.90
5392;DHT22;2719;53.624;9.786;2023-02-15T13:42:52;11.40;99.90
5392;DHT22;2719;53.624;9.786;2023-02-15T13:45:30;11.40;99.90
5392;DHT22;2719;53.624;9.786;2023-02-15T13:48:04;11.40;99.90
5392;DHT22;2719;53.624;9.786;2023-02-15T13:50:48;11.50;99.90
5392;DHT22;2719;53.624;9.786;2023-02-15T13:53:33;11.50;99.90
5392;DHT22;2719;53.624;9.786;2023-02-15T13:56:11;11.50;99.90
5392;DHT22;2719;53.624;9.786;2023-02-15T13:58:56;11.50;99.90
5392;DHT22;2719;53.624;9.786;2023-02-15T14:01:31;11.40;99.90
5392;DHT22;2719;53.624;9.786;2023-02-15T14:07:20;11.50;99.90
5392;DHT22;2719;53.624;9.786;2023-02-15T14:09:57;11.70;99.90
5392;DHT22;2719;53.624;9.786;2023-02-15T14:12:35;11.90;99.90
5392;DHT22;2719;53.624;9.786;2023-02-15T14:15:18;11.80;99.90
5392;DHT22;2719;53.624;9.786;2023-02-15T14:17:56;11.80;99.90
5392;DHT22;2719;53.624;9.786;2023-02-15T14:20:35;11.90;99.90
5392;DHT22;2719;53.624;9.786;2023-02-15T14:23:11;11.80;99.90
5392;DHT22;2719;53.624;9.786;2023-02-15T14:25:44;11.80;99.90
5392;DHT22;2719;53.624;9.786;2023-02-15T14:28:17;11.70;99.90
5392;DHT22;2719;53.624;9.786;2023-02-15T14:30:49;11.80;99.90
5392;DHT22;2719;53.624;9.786;2023-02-15T14:33:29;11.60;99.90
5392;DHT22;2719;53.624;9.786;2023-02-15T14:35:58;11.60;99.90
5392;DHT22;2719;53.624;9.786;2023-02-15T14:38:45;11.40;99.90
5392;DHT22;2719;53.624;9.786;2023-02-15T14:41:17;11.50;99.90
5392;DHT22;2719;53.624;9.786;2023-02-15T14:43:49;11.40;99.90
5392;DHT22;2719;53.624;9.786;2023-02-15T14:46:24;11.40;99.90
5392;DHT22;2719;53.624;9.786;2023-02-15T14:48:53;11.40;99.90
5392;DHT22;2719;53.624;9.786;2023-02-15T14:54:57;11.30;99.90
5392;DHT22;2719;53.624;9.786;2023-02-15T14:57:26;11.10;99.90
5392;DHT22;2719;53.624;9.786;2023-02-15T14:59:55;11.10;99.90
5392;DHT22;2719;53.624;9.786;2023-02-15T15:02:25;11.00;99.90
5392;DHT22;2719;53.624;9.786;2023-02-15T15:05:02;11.00;99.90
5392;DHT22;2719;53.624;9.786;2023-02-15T15:07:41;11.00;99.90
5392;DHT22;2719;53.624;9.786;2023-02-15T15:10:34;11.00;99.90
5392;DHT22;2719;53.624;9.786;2023-02-15T15:13:37;10.90;99.90
5392;DHT22;2719;53.624;9.786;2023-02-15T15:19:09;10.90;99.90
5392;DHT22;2719;53.624;9.786;2023-02-15T15:21:56;10.90;99.90
5392;DHT22;2719;53.624;9.786;2023-02-15T15:24:47;10.90;99.90
5392;DHT22;2719;53.624;9.786;2023-02-15T15:39:44;10.80;99.90
5392;DHT22;2719;53.624;9.786;2023-02-15T15:42:29;10.90;99.90
5392;DHT22;2719;53.624;9.786;2023-02-15T15:48:29;10.80;99.90
5392;DHT22;2719;53.624;9.786;2023-02-15T15:50:58;10.90;99.90
5392;DHT22;2719;53.624;9.786;2023-02-15T15:53:28;10.80;99.90
5392;DHT22;2719;53.624;9.786;2023-02-15T15:55:59;10.80;99.90
5392;DHT22;2719;53.624;9.786;2023-02-15T15:58:28;10.80;99.90
5392;DHT22;2719;53.624;9.786;2023-02-15T16:00:59;10.70;99.90
5392;DHT22;2719;53.624;9.786;2023-02-15T16:03:30;10.60;99.90
5392;DHT22;2719;53.624;9.786;2023-02-15T16:05:57;10.60;99.90
5392;DHT22;2719;53.624;9.786;2023-02-15T16:08:27;10.60;99.90
5392;DHT22;2719;53.624;9.786;2023-02-15T16:10:54;10.60;99.90
5392;DHT22;2719;53.624;9.786;2023-02-15T16:13:21;10.60;99.90
5392;DHT22;2719;53.624;9.786;2023-02-15T16:15:50;10.50;99.90
5392;DHT22;2719;53.624;9.786;2023-02-15T16:18:21;10.50;99.90
5392;DHT22;2719;53.624;9.786;2023-02-15T16:20:52;10.50;99.90
5392;DHT22;2719;53.624;9.786;2023-02-15T16:27:10;10.30;99.90
5392;DHT22;2719;53.624;9.786;2023-02-15T16:29:41;10.20;99.90
5392;DHT22;2719;53.624;9.786;2023-02-15T16:32:16;10.20;99.90
5392;DHT22;2719;53.624;9.786;2023-02-15T16:34:51;10.20;99.90
5392;DHT22;2719;53.624;9.786;2023-02-15T16:37:21;10.10;99.90
5392;DHT22;2719;53.624;9.786;2023-02-15T16:39:49;10.10;99.90
5392;DHT22;2719;53.624;9.786;2023-02-15T16:42:17;10.00;99.90
5392;DHT22;2719;53.624;9.786;2023-02-15T16:44:45;10.00;99.90
5392;DHT22;2719;53.624;9.786;2023-02-15T16:47:17;10.00;99.90
5392;DHT22;2719;53.624;9.786;2023-02-15T16:49:47;9.90;99.90
5392;DHT22;2719;53.624;9.786;2023-02-15T16:52:21;9.90;99.90
5392;DHT22;2719;53.624;9.786;2023-02-15T16:54:53;9.90;99.90
5392;DHT22;2719;53.624;9.786;2023-02-15T16:57:22;9.80;99.90
5392;DHT22;2719;53.624;9.786;2023-02-15T16:59:51;9.80;99.90
5392;DHT22;2719;53.624;9.786;2023-02-15T17:02:20;9.70;99.90
5392;DHT22;2719;53.624;9.786;2023-02-15T17:07:51;9.60;99.90
5392;DHT22;2719;53.624;9.786;2023-02-15T17:10:31;9.60;99.90
5392;DHT22;2719;53.624;9.786;2023-02-15T17:13:02;9.50;99.90
5392;DHT22;2719;53.624;9.786;2023-02-15T17:15:31;9.50;99.90
5392;DHT22;2719;53.624;9.786;2023-02-15T17:18:03;9.40;99.90
5392;DHT22;2719;53.624;9.786;2023-02-15T17:20:32;9.40;99.90
5392;DHT22;2719;53.624;9.786;2023-02-15T17:23:00;9.40;99.90